Dutse International Airport

DNDS · Jigawa, Nigeria

Storia di METAR DNDS · Dutse International Airport

Di seguito sono riportati i METAR degli ultimi giorni. Seleziona un anno per sfogliare i METAR più vecchi, dall'anno 2007 in poi.

6 dicembre 2022

Tempo Codice Tempo metereologico Temp. Vista Base nuvolosa Vento METAR/SPECI
04:00
V
17 °C 10 km+ - 040° 040° 4 kt METAR DNKN 060300Z 04004KT CAVOK 17/05 Q1016 NOSIG
03:00
V
15 °C 10 km+ - 050° 050° 5 kt METAR DNKN 060200Z 05005KT CAVOK 15/06 Q1016 NOSIG
02:00
V
15 °C 10 km+ - 070° 070° 4 kt METAR DNKN 060100Z 07004KT CAVOK 15/07 Q1017 NOSIG
01:00
V
15 °C 10 km+ - 350° 350° 5 kt METAR DNKN 060000Z 35005KT CAVOK 15/07 Q1017 NOSIG
00:00
V
15 °C 10 km+ - Var 000° 0 kt METAR DNKN 052300Z 00000KT CAVOK 15/06 Q1017 NOSIG

5 dicembre 2022

Tempo Codice Tempo metereologico Temp. Vista Base nuvolosa Vento METAR/SPECI
23:00
V
16 °C 10 km+ - Var 000° 0 kt METAR DNKN 052200Z 00000KT CAVOK 16/07 Q1017 NOSIG
22:00
V
18 °C 10 km+ - Var 000° 0 kt METAR DNKN 052100Z 00000KT CAVOK 18/07 Q1018 NOSIG
21:00
V
18 °C 10 km+ - Var 000° 0 kt METAR DNKN 052000Z 00000KT CAVOK NSC 18/17 Q1017 NOSIG
20:00
V
19 °C 8 km - Var 000° 0 kt METAR DNKN 051900Z 00000KT 8000 NSC 19/17 Q1017 NOSIG
19:00
M
24 °C 7 km - 040° 040° 4 kt METAR DNKN 051800Z 04004KT 7000 NSC 24/10 Q1016 NOSIG
18:00
M
28 °C 6 km - 040° 040° 7 kt METAR DNKN 051700Z 04007KT 6000 NSC 28/07 Q1015 NOSIG
17:00
M
31 °C 6 km - 030° 030° 8 kt METAR DNKN 051600Z 03008KT 6000 NSC 31/05 Q1015 NOSIG
16:00
M
32 °C 6 km - 050° 050° 10 kt METAR DNKN 051500Z 05010KT 6000 NSC 32/06 Q1015 NOSIG
15:00
M
32 °C 6 km - 070° 070° 10 kt METAR DNKN 051400Z 07010KT 6000 NSC 32/04 Q1015 NOSIG
14:00
M
32 °C 5 km - 040° 040° 10 kt METAR DNKN 051300Z 04010KT 5000 HZ NSC 32/04 Q1015 NOSIG
13:00
M
31 °C 5 km - 030° 030° 12 kt METAR DNKN 051200Z 03012KT 5000 HZ NSC 31/03 Q1016 NOSIG
12:00
M
30 °C 5 km - 020° 020° 11 kt METAR DNKN 051100Z 02011KT 5000 HZ NSC 30/01 Q1018 NOSIG
11:00
I
28 °C 3 km - 060° 060° 16 kt METAR DNKN 051000Z 06016KT 3000 HZ NSC 28/02 Q1018 NOSIG
10:00
M
27 °C 5 km - 090° 090° 12 kt METAR DNKN 050900Z 09012KT 5000 HZ NSC 27/01 Q1018 TEMPO 3000
09:00
M
23 °C 6 km - 070° 070° 10 kt METAR DNKN 050800Z 07010KT 6000 NSC 23/07 Q1018 NOSIG
08:00
M
20 °C 6 km - 060° 060° 5 kt METAR DNKN 050700Z 06005KT 6000 NSC 20/08 Q1018 NOSIG
07:00
V
15 °C 8 km - 060° 060° 4 kt METAR DNKN 050600Z 06004KT 8000 NSC 15/07 Q1017 NOSIG
06:00
V
18 °C 10 km+ - 050° 050° 4 kt METAR DNKN 050500Z 05004KT CAVOK 18/07 Q1016 NOSIG
05:00
V
18 °C 10 km+ - 050° 050° 4 kt METAR DNKN 050400Z 05004KT CAVOK 18/08 Q1015 NOSIG
04:00
V
18 °C 10 km+ - 040° 040° 3 kt METAR DNKN 050300Z 04003KT CAVOK 18/09 Q1015 NOSIG
03:00
V
16 °C 10 km+ - Var 000° 0 kt METAR DNKN 050200Z 00000KT CAVOK 16/11 Q1015 NOSIG
02:00
V
18 °C 10 km+ - Var 000° 0 kt METAR DNKN 050100Z 00000KT CAVOK 18/10 Q1015 NOSIG
01:00
V
18 °C 10 km+ - Var 000° 0 kt METAR DNKN 050000Z 00000KT CAVOK 18/11 Q1016 NOSIG
00:00
V
18 °C 10 km+ - 340° 340° 3 kt METAR DNKN 042300Z 34003KT CAVOK 18/11 Q115 NOSIG

4 dicembre 2022

Tempo Codice Tempo metereologico Temp. Vista Base nuvolosa Vento METAR/SPECI
23:00
V
20 °C 10 km+ - Var 000° 0 kt METAR DNKN 042200Z 00000KT CAVOK 20/11 Q1016 NOSIG
22:00
V
20 °C 10 km+ - Var 000° 0 kt METAR DNKN 042100Z 00000KT CAVOK 20/11 Q1016 NOSIG
21:00
V
21 °C 10 km+ - Var 000° 0 kt METAR DNKN 042000Z 00000KT CAVOK 21/11 Q1015 NOSIG
20:00
V
25 °C 10 km+ - 070° 070° 5 kt METAR DNKN 041900Z 07005KT CAVOK 25/11 Q1015 NOSIG
19:00
V
27 °C 10 km+ - 070° 070° 4 kt METAR DNKN 041800Z 07004KT CAVOK 27/10 Q1014 NOSIG
18:00
V
30 °C 10 km+ - 060° 060° 7 kt METAR DNKN 041700Z 06007KT CAVOK 30/08 Q1013 NOSIG
17:00
V
35 °C 10 km+ - 060° 060° 13 kt METAR DNKN 041600Z 06013KT CAVOK 35/05 Q1012 NOSIG
16:00
V
35 °C 10 km+ - 070° 070° 14 kt METAR DNKN 041500Z 07014KT CAVOK 35/05 Q1012 NOSIG
15:00
V
34 °C 10 km+ - 060° 060° 13 kt METAR DNKN 041400Z 06013KT CAVOK 34/08 Q1012 NOSIG
14:00
V
34 °C 10 km+ - 070° 070° 13 kt METAR DNKN 041300Z 07013KT CAVOK 34/07 Q1013 NOSIG
13:00
V
33 °C 10 km+ - 090° 090° 11 kt METAR DNKN 041200Z 09011KT CAVOK 33/07 Q1014 NOSIG
12:00
V
32 °C 10 km+ - 080° 080° 7 kt METAR DNKN 041100Z 08007KT CAVOK 32/06 Q1015 NOSIG
11:00
V
28 °C 10 km+ - 050° 050° 8 kt METAR DNKN 041000Z 05008KT CAVOK 28/09 Q1016 NOSIG
10:00
V
29 °C 8 km - 060° 060° 8 kt METAR DNKN 040900Z 06008KT 8000 NSC 29/04 Q1016 NOSIG
09:00
V
24 °C 8 km - 040° 040° 7 kt METAR DNKN 040800Z 04007KT 8000 NSC 24/05 Q1016 NOSIG
08:00
V
21 °C 8 km - Var Var 2 kt METAR DNKN 040700Z VRB02KT 8000 NSC 21/08 Q1016 NOSIG
07:00
V
15 °C 10 km+ - 330° 330° 3 kt METAR DNKN 040600Z 33003KT CAVOK 15/07 Q1015 NOSIG
06:00
V
15 °C 10 km+ - 350° 350° 3 kt METAR DNKN 040500Z 35003KT CAVOK 15/09 Q1014 NOSIG
05:00
V
18 °C 10 km+ - Var 000° 0 kt METAR DNKN 040400Z CALM CAVOK 18/09 Q1014 NOSIG
04:00
V
18 °C 10 km+ - 330° 330° 3 kt METAR DNKN 040300Z 33003KT CAVOK 18/10 Q1013 NOSIG
02:00
V
19 °C 10 km+ - 330° 330° 4 kt METAR DNKN 040100Z 33004KT CAVOK 19/09 Q1013 NOSIG
01:00
V
19 °C 10 km+ - 300° 300° 4 kt METAR DNKN 040000Z 30004KT CAVOK 19/10 Q1013 NOSIG
00:00
V
20 °C 10 km+ - Var 000° 0 kt METAR DNKN 032300Z CALM CAVOK 20/11 Q1014 NOSIG

3 dicembre 2022

Tempo Codice Tempo metereologico Temp. Vista Base nuvolosa Vento METAR/SPECI
23:00
V
18 °C 10 km+ - Var 000° 0 kt METAR DNKN 032200Z CALM CAVOK 18/11 Q1014 NOSIG
22:00
V
20 °C 10 km+ - Var 000° 0 kt METAR DNKN 032100Z 00000KT CAVOK 20/10 Q1014 NOSIG
21:00
V
21 °C 10 km+ - Var 000° 0 kt METAR DNKN 032000Z 00000KT CAVOK 21/10 Q1014 NOSIG
20:00
V
22 °C 10 km+ - 020° 020° 3 kt METAR DNKN 031900Z 02003KT CAVOK 22/09 Q1013 NOSIG
19:00
V
26 °C 10 km+ - 030° 030° 3 kt METAR DNKN 031800Z 03003KT CAVOK 26/13 Q1012 NOSIG
18:00
V
30 °C 10 km+ - 070° 070° 6 kt METAR DNKN 031700Z 07006KT CAVOK 30/08 Q1011 NOSIG
17:00
V
33 °C 10 km+ - 090° 090° 9 kt METAR DNKN 031600Z 09009KT CAVOK 33/08 Q1011 NOSIG
16:00
V
35 °C 10 km+ - 030° 030° 8 kt METAR DNKN 031500Z 03008KT CAVOK 35/08 Q1011 NOSIG
15:00
V
35 °C 10 km+ - 020° 020° 8 kt METAR DNKN 031400Z 02008KT CAVOK 35/07 Q1011 NOSIG
14:00
V
34 °C 10 km+ - 020° 020° 6 kt METAR DNKN 031300Z 02006KT CAVOK 34/07 Q1011 NOSIG
13:00
V
34 °C 10 km+ - 160° 160° 3 kt METAR DNKN 031200Z 16003KT CAVOK 34/07 Q1012 NOSIG
12:00
V
33 °C 10 km+ - 110° 110° 4 kt METAR DNKN 031100Z 11004KT CAVOK 33/06 Q1013 NOSIG
11:00
V
32 °C 10 km+ - 060° 060° 5 kt METAR DNKN 031000Z 06005KT CAVOK 32/05 1014 NOSIG

Noi e le terze parti seguiamo il tuo comportamento su internet con i cookie. Se continui, riteniamo che tu sia d'accordo con la nostra Politica sui cookie.